createdAt,value
2019-04-01T00:02:09.394Z,58.95
2019-04-01T00:04:37.843Z,59.38
2019-04-01T00:07:06.300Z,59.07
2019-04-01T00:09:34.748Z,58.90
2019-04-01T00:12:03.194Z,59.47
2019-04-01T00:14:31.628Z,59.59
2019-04-01T00:17:00.080Z,59.34
2019-04-01T00:19:28.530Z,58.98
2019-04-01T00:21:56.956Z,58.94
2019-04-01T00:24:25.496Z,59.10
2019-04-01T00:26:53.956Z,59.29
2019-04-01T00:29:22.386Z,60.01
2019-04-01T00:31:50.816Z,60.18
2019-04-01T00:34:19.284Z,60.97
2019-04-01T00:36:47.726Z,60.36
2019-04-01T00:39:16.160Z,60.23
2019-04-01T00:41:48.918Z,61.00
2019-04-01T00:44:17.358Z,61.39
2019-04-01T00:46:45.800Z,60.80
2019-04-01T00:49:14.291Z,61.14
2019-04-01T00:51:42.748Z,61.15
2019-04-01T00:54:11.174Z,61.62
2019-04-01T00:56:39.599Z,61.02
2019-04-01T00:59:08.049Z,61.55
2019-04-01T01:01:36.479Z,61.59
2019-04-01T01:04:04.904Z,62.01
2019-04-01T01:06:33.351Z,62.76
2019-04-01T01:09:01.796Z,63.02
2019-04-01T01:11:30.200Z,63.42
2019-04-01T01:13:58.654Z,63.50
2019-04-01T01:16:27.099Z,63.54
2019-04-01T01:18:55.552Z,64.40
2019-04-01T01:21:25.559Z,63.42
2019-04-01T01:23:54.013Z,63.03
2019-04-01T01:26:22.448Z,63.28
2019-04-01T01:28:50.912Z,63.43
2019-04-01T01:31:19.320Z,63.80
2019-04-01T01:33:47.744Z,64.47
2019-04-01T01:36:16.202Z,64.27
2019-04-01T01:38:44.655Z,64.27
2019-04-01T01:41:13.070Z,65.35
2019-04-01T01:43:41.519Z,65.00
2019-04-01T01:46:09.954Z,65.24
2019-04-01T01:48:38.405Z,64.96
2019-04-01T01:51:06.840Z,64.58
2019-04-01T01:53:35.294Z,64.59
2019-04-01T01:56:03.768Z,65.66
2019-04-01T01:58:32.189Z,65.75
2019-04-01T02:01:00.622Z,65.63
2019-04-01T02:03:29.090Z,66.11
2019-04-01T02:05:57.534Z,66.67
2019-04-01T02:08:26.012Z,66.80
2019-04-01T02:10:54.453Z,66.44
2019-04-01T02:13:22.906Z,67.19
2019-04-01T02:15:51.364Z,67.28
2019-04-01T02:18:19.809Z,67.45
2019-04-01T02:20:48.233Z,68.43
2019-04-01T02:23:16.716Z,67.66
2019-04-01T02:25:45.246Z,67.72
2019-04-01T02:28:13.681Z,68.45
2019-04-01T02:30:42.121Z,68.74
2019-04-01T02:33:10.578Z,68.92
2019-04-01T02:35:39.039Z,69.01
2019-04-01T02:38:07.480Z,68.52
2019-04-01T02:40:36.101Z,67.85
2019-04-01T02:43:04.675Z,67.49
2019-04-01T02:45:33.131Z,68.46
2019-04-01T02:48:01.578Z,69.01
2019-04-01T02:50:30.002Z,68.31
2019-04-01T02:52:58.483Z,68.89
2019-04-01T02:55:26.899Z,69.81
2019-04-01T02:57:55.322Z,70.10
2019-04-01T03:00:23.778Z,70.07
2019-04-01T03:02:52.233Z,69.87
2019-04-01T03:05:20.688Z,70.30
2019-04-01T03:07:49.119Z,70.71
2019-04-01T03:10:17.548Z,70.77
2019-04-01T03:12:46.003Z,70.83
2019-04-01T03:15:14.456Z,70.87
2019-04-01T03:17:42.887Z,70.94
2019-04-01T03:20:11.507Z,71.14
2019-04-01T03:22:39.973Z,72.37
2019-04-01T03:25:08.581Z,72.74
2019-04-01T03:27:37.036Z,72.43
2019-04-01T03:30:06.322Z,73.04
2019-04-01T03:32:34.780Z,73.27
2019-04-01T03:35:03.329Z,73.57
2019-04-01T03:37:31.749Z,73.27
2019-04-01T03:40:00.629Z,72.99
2019-04-01T03:42:29.235Z,72.83
2019-04-01T03:44:57.673Z,72.86
2019-04-01T03:47:26.138Z,73.14
2019-04-01T03:49:54.601Z,73.31
2019-04-01T03:52:23.047Z,73.62
2019-04-01T03:54:51.503Z,73.69
2019-04-01T03:57:19.949Z,73.76
2019-04-01T03:59:48.430Z,73.61
2019-04-01T04:02:16.894Z,73.69
2019-04-01T04:04:45.329Z,74.21
2019-04-01T04:07:13.801Z,74.54
2019-04-01T04:09:42.226Z,74.64
2019-04-01T04:12:10.683Z,74.50
2019-04-01T04:14:39.167Z,74.25
2019-04-01T04:17:07.614Z,75.00
2019-04-01T04:19:36.075Z,75.58
2019-04-01T04:22:04.515Z,75.69
2019-04-01T04:24:32.980Z,75.55
2019-04-01T04:27:01.418Z,75.68
2019-04-01T04:29:29.851Z,76.24
2019-04-01T04:31:58.333Z,76.51
2019-04-01T04:34:26.979Z,76.23
2019-04-01T04:36:55.476Z,76.30
2019-04-01T04:39:23.938Z,76.26
2019-04-01T04:41:52.401Z,76.21
2019-04-01T04:44:21.009Z,76.24
2019-04-01T04:46:49.862Z,76.33
2019-04-01T04:49:18.303Z,76.28
2019-04-01T04:51:46.831Z,77.23
2019-04-01T04:54:15.294Z,77.19
2019-04-01T04:56:43.737Z,76.52
2019-04-01T04:59:12.207Z,77.12
2019-04-01T05:01:40.639Z,77.80
2019-04-01T05:04:09.105Z,77.22
2019-04-01T05:06:37.581Z,77.36
2019-04-01T05:09:06.700Z,76.98
2019-04-01T05:11:35.164Z,77.06
2019-04-01T05:14:03.707Z,77.49
2019-04-01T05:16:32.152Z,77.79
2019-04-01T05:19:00.607Z,77.47
2019-04-01T05:21:30.258Z,77.85
2019-04-01T05:23:59.174Z,77.61
2019-04-01T05:26:28.091Z,77.57
2019-04-01T05:28:58.385Z,77.06
2019-04-01T05:31:28.757Z,76.88
2019-04-01T05:34:00.257Z,76.47
2019-04-01T05:36:28.863Z,76.37
2019-04-01T05:38:57.769Z,76.43
2019-04-01T05:41:26.327Z,76.07
2019-04-01T05:43:55.035Z,76.08
2019-04-01T05:46:23.467Z,75.61
2019-04-01T05:48:52.102Z,73.77
2019-04-01T05:51:20.574Z,73.49
2019-04-01T05:53:49.610Z,72.52
2019-04-01T05:56:18.008Z,72.46
2019-04-01T05:58:46.473Z,71.60
2019-04-01T06:01:25.585Z,70.90
2019-04-01T06:03:54.051Z,69.89
2019-04-01T06:06:22.471Z,68.89
2019-04-01T06:08:50.905Z,69.06
2019-04-01T06:11:19.380Z,68.57
2019-04-01T06:13:47.913Z,67.92
2019-04-01T06:16:16.555Z,67.97
2019-04-01T06:18:45.105Z,67.30
2019-04-01T06:21:14.716Z,66.56
2019-04-01T06:23:43.226Z,65.80
2019-04-01T06:26:11.856Z,64.92
2019-04-01T06:28:40.304Z,64.56
2019-04-01T06:31:08.842Z,63.78
2019-04-01T06:33:37.335Z,64.08
2019-04-01T06:36:05.801Z,63.20
2019-04-01T06:38:34.314Z,63.78
2019-04-01T06:41:02.782Z,63.80
2019-04-01T06:43:31.238Z,62.63
2019-04-01T06:45:59.693Z,62.19
2019-04-01T06:48:35.663Z,62.94
2019-04-01T06:51:04.313Z,62.83
2019-04-01T06:53:32.776Z,61.77
2019-04-01T06:56:01.237Z,62.17
2019-04-01T06:58:29.697Z,62.51
2019-04-01T07:00:58.300Z,62.09
2019-04-01T07:03:26.771Z,61.99
2019-04-01T07:05:55.210Z,61.15
2019-04-01T07:08:23.674Z,61.58
2019-04-01T07:10:52.111Z,60.76
2019-04-01T07:13:20.581Z,59.97
2019-04-01T07:15:49.007Z,59.89
2019-04-01T07:18:17.610Z,59.07
2019-04-01T07:20:46.123Z,59.31
2019-04-01T07:23:14.630Z,58.67
2019-04-01T07:25:43.146Z,57.77
2019-04-01T07:28:11.615Z,57.90
2019-04-01T07:30:41.861Z,57.54
2019-04-01T07:33:10.335Z,57.40
2019-04-01T07:35:38.795Z,57.25
2019-04-01T07:38:07.296Z,56.75
2019-04-01T07:40:35.963Z,55.37
2019-04-01T07:43:04.740Z,54.84
2019-04-01T07:45:33.181Z,53.83
2019-04-01T07:48:01.637Z,53.42
2019-04-01T07:50:30.142Z,53.02
2019-04-01T07:52:58.616Z,53.07
2019-04-01T07:55:27.140Z,52.77
2019-04-01T07:57:55.560Z,52.56
2019-04-01T08:00:24.886Z,52.42
2019-04-01T08:02:53.359Z,52.20
2019-04-01T08:05:21.803Z,50.56
2019-04-01T08:07:50.276Z,50.52
2019-04-01T08:10:19.001Z,49.71
2019-04-01T08:12:47.453Z,50.11
2019-04-01T08:15:16.388Z,49.40
2019-04-01T08:17:44.995Z,50.17
2019-04-01T08:20:15.288Z,49.30
2019-04-01T08:22:43.770Z,49.20
2019-04-01T08:25:12.239Z,49.12
2019-04-01T08:27:40.659Z,49.11
2019-04-01T08:30:09.668Z,48.79
2019-04-01T08:32:38.107Z,49.10
2019-04-01T08:35:07.239Z,48.22
2019-04-01T08:37:35.847Z,47.94
2019-04-01T08:40:06.145Z,47.16
2019-04-01T08:42:36.140Z,47.42
2019-04-01T08:45:07.352Z,47.53
2019-04-01T08:47:35.832Z,47.24
2019-04-01T08:50:06.460Z,47.73
2019-04-01T08:52:35.107Z,47.66
2019-04-01T08:55:05.274Z,47.27
2019-04-01T08:57:33.890Z,47.09
2019-04-01T09:00:02.432Z,47.15
2019-04-01T09:02:31.060Z,46.80
2019-04-01T09:05:00.384Z,46.90
2019-04-01T09:07:28.843Z,46.75
2019-04-01T09:09:58.288Z,46.54
2019-04-01T09:12:27.977Z,45.93
2019-04-01T09:14:57.763Z,46.62
2019-04-01T09:17:26.450Z,44.92
2019-04-01T09:19:54.896Z,44.67
2019-04-01T09:22:23.361Z,45.10
2019-04-01T09:24:51.782Z,44.82
2019-04-01T09:27:20.255Z,45.11
2019-04-01T09:29:48.675Z,44.97
2019-04-01T09:32:17.117Z,45.96
2019-04-01T09:34:45.610Z,45.21
2019-04-01T09:37:14.051Z,45.24
2019-04-01T09:39:42.475Z,44.59
2019-04-01T09:42:10.938Z,44.19
2019-04-01T09:44:39.381Z,44.81
2019-04-01T09:47:07.835Z,44.72
2019-04-01T09:49:36.298Z,44.81
2019-04-01T09:52:04.817Z,44.02
2019-04-01T09:54:33.279Z,43.67
2019-04-01T09:57:16.115Z,43.70
2019-04-01T09:59:31.961Z,43.95
2019-04-01T10:02:00.426Z,43.88
2019-04-01T10:04:28.870Z,43.40
2019-04-01T10:06:57.345Z,42.14
2019-04-01T10:09:25.809Z,41.84
2019-04-01T10:11:54.394Z,43.10
2019-04-01T10:14:22.870Z,43.57
2019-04-01T10:16:51.297Z,42.41
2019-04-01T10:19:19.926Z,41.43
2019-04-01T10:21:49.157Z,40.85
2019-04-01T10:24:17.627Z,41.28
2019-04-01T10:26:46.098Z,41.61
2019-04-01T10:29:14.529Z,40.13
2019-04-01T10:31:43.002Z,40.42
2019-04-01T10:34:11.464Z,41.00
2019-04-01T10:36:39.919Z,40.41
2019-04-01T10:39:08.423Z,40.55
2019-04-01T10:41:36.944Z,40.72
2019-04-01T10:44:05.392Z,40.26
2019-04-01T10:46:33.932Z,39.87
2019-04-01T10:49:02.369Z,39.11
2019-04-01T10:51:30.841Z,38.77
2019-04-01T10:53:59.277Z,38.45
2019-04-01T10:56:27.755Z,39.01
2019-04-01T10:58:57.101Z,39.19
2019-04-01T11:01:25.536Z,38.81
2019-04-01T11:03:54.043Z,38.20
2019-04-01T11:06:22.439Z,38.44
2019-04-01T11:08:51.007Z,38.76
2019-04-01T11:11:19.470Z,39.17
2019-04-01T11:13:51.562Z,38.09
2019-04-01T11:16:18.408Z,38.16
2019-04-01T11:18:46.875Z,38.99
2019-04-01T11:21:15.349Z,38.89
2019-04-01T11:23:43.784Z,38.90
2019-04-01T11:26:12.241Z,39.14
2019-04-01T11:28:40.689Z,38.73
2019-04-01T11:31:09.182Z,38.75
2019-04-01T11:33:37.623Z,38.97
2019-04-01T11:36:06.133Z,38.25
2019-04-01T11:38:34.669Z,38.08
2019-04-01T11:41:03.208Z,38.58
2019-04-01T11:43:35.350Z,38.23
2019-04-01T11:46:02.182Z,37.94
2019-04-01T11:48:30.649Z,38.11
2019-04-01T11:50:59.124Z,37.31
2019-04-01T11:53:27.775Z,36.90
2019-04-01T11:55:56.220Z,37.58
2019-04-01T11:58:24.666Z,37.22
2019-04-01T12:00:53.210Z,37.52
2019-04-01T12:03:21.648Z,37.92
2019-04-01T12:05:50.076Z,37.61
2019-04-01T12:08:18.572Z,37.95
2019-04-01T12:10:47.006Z,37.89
2019-04-01T12:13:15.437Z,38.12
2019-04-01T12:15:43.904Z,37.61
2019-04-01T12:18:12.350Z,37.69
2019-04-01T12:20:40.860Z,37.43
2019-04-01T12:23:09.490Z,37.34
2019-04-01T12:25:39.839Z,38.09
2019-04-01T12:28:08.327Z,37.78
2019-04-01T12:30:36.779Z,38.19
2019-04-01T12:33:05.246Z,38.67
2019-04-01T12:35:34.102Z,38.82
2019-04-01T12:38:02.554Z,38.52
2019-04-01T12:40:31.127Z,38.29
2019-04-01T12:42:59.559Z,37.53
2019-04-01T12:45:28.036Z,37.89
2019-04-01T12:47:56.530Z,37.89
2019-04-01T12:50:24.983Z,38.74
2019-04-01T12:52:53.438Z,38.74
2019-04-01T12:55:21.932Z,38.75
2019-04-01T12:57:51.008Z,39.07
2019-04-01T13:00:19.904Z,39.09
2019-04-01T13:02:49.487Z,38.84
2019-04-01T13:05:18.018Z,38.02
2019-04-01T13:07:46.487Z,38.02
2019-04-01T13:10:15.093Z,37.55
2019-04-01T13:12:43.608Z,38.24
2019-04-01T13:15:12.976Z,37.90
2019-04-01T13:17:41.791Z,37.90
2019-04-01T13:20:10.821Z,38.36
2019-04-01T13:22:39.265Z,38.36
2019-04-01T13:25:08.171Z,38.24
2019-04-01T13:27:36.645Z,38.43
2019-04-01T13:30:07.198Z,38.97
2019-04-01T13:32:35.669Z,38.97
2019-04-01T13:35:07.647Z,38.62
2019-04-01T13:37:36.111Z,38.34
2019-04-01T13:40:05.981Z,38.39
2019-04-01T13:42:34.508Z,38.12
2019-04-01T13:45:03.144Z,38.27
2019-04-01T13:47:31.604Z,38.27
2019-04-01T13:50:00.090Z,37.88
2019-04-01T13:52:28.551Z,37.88
2019-04-01T13:54:56.998Z,37.82
2019-04-01T13:57:25.594Z,37.33
2019-04-01T13:59:54.048Z,37.64
2019-04-01T14:02:22.517Z,36.84
2019-04-01T14:04:50.995Z,36.84
2019-04-01T14:07:19.457Z,36.91
2019-04-01T14:09:47.919Z,36.44
2019-04-01T14:12:16.356Z,37.12
2019-04-01T14:14:44.826Z,36.75
2019-04-01T14:17:13.267Z,36.75
2019-04-01T14:19:41.698Z,36.75
2019-04-01T14:22:10.181Z,35.69
2019-04-01T14:24:38.641Z,35.68
2019-04-01T14:27:07.073Z,35.92
2019-04-01T14:29:36.564Z,36.32
2019-04-01T14:32:05.257Z,36.36
2019-04-01T14:34:33.731Z,36.01
2019-04-01T14:37:04.850Z,35.82
2019-04-01T14:39:34.794Z,35.58
2019-04-01T14:42:02.758Z,35.71
2019-04-01T14:44:31.216Z,35.31
2019-04-01T14:46:59.686Z,35.29
2019-04-01T14:49:28.136Z,35.39
2019-04-01T14:51:56.560Z,34.85
2019-04-01T14:54:25.014Z,34.79
2019-04-01T14:56:53.461Z,34.76
2019-04-01T14:59:21.939Z,34.73
2019-04-01T15:01:50.388Z,34.64
2019-04-01T15:04:18.817Z,34.31
2019-04-01T15:06:47.465Z,34.42
2019-04-01T15:09:17.305Z,34.67
2019-04-01T15:11:45.878Z,35.04
2019-04-01T15:14:14.302Z,34.80
2019-04-01T15:16:42.999Z,34.84
2019-04-01T15:19:13.032Z,35.04
2019-04-01T15:21:41.568Z,34.96
2019-04-01T15:24:10.021Z,35.61
2019-04-01T15:26:38.465Z,34.96
2019-04-01T15:29:06.942Z,35.39
2019-04-01T15:31:35.369Z,34.96
2019-04-01T15:34:03.808Z,35.43
2019-04-01T15:36:32.286Z,35.48
2019-04-01T15:39:00.821Z,35.79
2019-04-01T15:41:29.250Z,36.00
2019-04-01T15:43:57.738Z,35.99
2019-04-01T15:46:26.196Z,36.27
2019-04-01T15:48:54.629Z,36.20
2019-04-01T15:51:23.087Z,36.03
2019-04-01T15:53:51.520Z,36.08
2019-04-01T15:56:19.975Z,35.86
2019-04-01T15:58:50.800Z,36.53
2019-04-01T16:01:18.620Z,36.53
2019-04-01T16:03:47.079Z,36.89
2019-04-01T16:06:15.520Z,37.05
2019-04-01T16:08:43.988Z,37.05
